Time;durP1;ratioP1;P1;durP2;ratioP2;P2;SDS_P1;SDS_P2;PMS_P1;PMS_P2;Temp;Humidity;BMP_temperature;BMP_pressure;BME280_temperature;BME280_humidity;BME280_pressure;Samples;Min_cycle;Max_cycle;Signal;HPM_P1;HPM_P2
2021/09/14 00:00:21;;;;;;;8.75;3.12;;;;;;;15.90;73.41;101515.66;1792979;79;21022;-84
2021/09/14 00:02:49;;;;;;;8.98;3.87;;;;;;;15.89;73.44;101517.84;1793637;80;21531;-85
2021/09/14 00:05:17;;;;;;;8.03;3.20;;;;;;;15.89;73.52;101514.73;1793727;79;21571;-85
2021/09/14 00:07:46;;;;;;;10.03;3.37;;;;;;;15.89;73.50;101516.51;1793736;79;21021;-85
2021/09/14 00:10:15;;;;;;;8.28;3.52;;;;;;;15.88;73.55;101510.76;1762364;80;20999;-85
2021/09/14 00:12:42;;;;;;;5.45;2.80;;;;;;;15.90;73.61;101511.67;1794297;80;21496;-84
2021/09/14 00:15:10;;;;;;;6.70;3.10;;;;;;;15.88;73.54;101511.64;1793928;80;21841;-84
2021/09/14 00:17:37;;;;;;;9.20;3.20;;;;;;;15.85;73.59;101510.25;1793860;80;21287;-84
2021/09/14 00:20:05;;;;;;;8.35;3.20;;;;;;;15.85;73.62;101506.27;1794247;80;21488;-84
2021/09/14 00:22:32;;;;;;;6.20;3.17;;;;;;;15.85;73.62;101511.59;1794160;80;21194;-85
2021/09/14 00:25:01;;;;;;;7.60;2.92;;;;;;;15.87;73.68;101512.50;1794419;80;21582;-85
2021/09/14 00:27:27;;;;;;;7.20;2.80;;;;;;;15.88;73.66;101517.39;1794287;80;23363;-84
2021/09/14 00:29:54;;;;;;;10.10;3.85;;;;;;;15.89;73.70;101520.48;1794163;80;21081;-85
2021/09/14 00:32:23;;;;;;;7.95;3.27;;;;;;;15.87;73.68;101511.17;1793437;80;20971;-84
2021/09/14 00:34:52;;;;;;;11.22;3.17;;;;;;;15.85;73.58;101513.36;1794124;80;21058;-84
2021/09/14 00:37:18;;;;;;;9.93;3.08;;;;;;;15.83;73.63;101516.42;1793847;78;20978;-84
2021/09/14 00:39:45;;;;;;;14.60;3.10;;;;;;;15.83;73.69;101516.42;1793707;80;23046;-84
2021/09/14 00:42:13;;;;;;;9.65;3.12;;;;;;;15.81;73.73;101511.09;1794007;80;21047;-84
2021/09/14 00:44:40;;;;;;;8.00;3.27;;;;;;;15.81;73.74;101517.72;1793990;80;21500;-84
2021/09/14 00:47:11;;;;;;;10.08;3.30;;;;;;;15.82;73.83;101520.84;1762372;80;21021;-83
2021/09/14 00:49:40;;;;;;;6.87;3.25;;;;;;;15.81;73.78;101516.39;1793862;80;20982;-83
2021/09/14 00:52:09;;;;;;;10.32;3.33;;;;;;;15.82;73.86;101517.28;1793235;79;22619;-83
2021/09/14 00:54:37;;;;;;;5.60;2.92;;;;;;;15.81;73.85;101517.72;1788343;80;21413;-82
2021/09/14 00:57:03;;;;;;;10.93;3.35;;;;;;;15.82;73.88;101518.60;1762399;80;21022;-83
2021/09/14 00:59:30;;;;;;;5.95;3.05;;;;;;;15.80;73.93;101517.69;1793770;80;21677;-83
2021/09/14 01:01:57;;;;;;;8.23;3.12;;;;;;;15.80;73.93;101515.03;1794023;80;21045;-83
2021/09/14 01:04:26;;;;;;;9.05;2.90;;;;;;;15.80;73.98;101514.59;1794257;80;21750;-83
2021/09/14 01:06:53;;;;;;;9.55;3.05;;;;;;;15.78;73.99;101514.13;1793792;80;21822;-83
2021/09/14 01:09:20;;;;;;;7.97;3.05;;;;;;;15.78;74.03;101512.80;1794213;80;21057;-83
2021/09/14 01:11:47;;;;;;;9.30;3.17;;;;;;;15.79;74.09;101517.25;1794315;80;21053;-83
2021/09/14 01:14:14;;;;;;;9.45;3.25;;;;;;;15.79;74.09;101512.83;1794344;80;20974;-83
2021/09/14 01:16:41;;;;;;;9.35;3.42;;;;;;;15.82;74.16;101515.95;1794151;79;22694;-83
2021/09/14 01:19:09;;;;;;;7.58;3.30;;;;;;;15.80;73.99;101524.33;1794011;80;21038;-83
2021/09/14 01:21:38;;;;;;;6.92;3.05;;;;;;;15.76;74.10;101524.70;1794052;80;21660;-83
2021/09/14 01:24:08;;;;;;;8.60;3.40;;;;;;;15.74;74.11;101524.68;1794205;79;21029;-83
2021/09/14 01:26:36;;;;;;;8.13;3.42;;;;;;;15.72;74.17;101519.75;1762299;80;21013;-84
2021/09/14 01:30:11;;;;;;;7.35;3.55;;;;;;;15.71;74.21;101523.29;1794199;80;22481;-84
2021/09/14 01:31:38;;;;;;;8.20;3.37;;;;;;;15.71;74.31;101519.72;1788399;80;21085;-83
2021/09/14 01:34:08;;;;;;;6.25;2.85;;;;;;;15.73;74.31;101522.91;1793972;80;21046;-84
2021/09/14 01:36:33;;;;;;;10.32;3.20;;;;;;;15.71;74.35;101515.33;1793806;79;21485;-84
2021/09/14 01:39:00;;;;;;;8.40;3.42;;;;;;;15.74;74.36;101517.16;1794141;80;21065;-84
2021/09/14 01:41:27;;;;;;;9.63;3.58;;;;;;;15.73;74.37;101516.69;1794188;80;21759;-84
2021/09/14 01:43:54;;;;;;;9.88;3.22;;;;;;;15.72;74.40;101513.55;1794027;80;20971;-83
2021/09/14 01:46:23;;;;;;;5.95;3.05;;;;;;;15.71;74.40;101515.33;1762057;80;21030;-83
2021/09/14 01:48:49;;;;;;;8.10;3.52;;;;;;;15.72;74.46;101518.86;1793952;80;22170;-84
2021/09/14 01:51:16;;;;;;;7.65;2.98;;;;;;;15.73;74.48;101514.03;1793862;80;21061;-82
2021/09/14 01:53:43;;;;;;;8.55;2.80;;;;;;;15.72;74.52;101517.53;1793925;80;21786;-83
2021/09/14 01:56:10;;;;;;;7.97;3.15;;;;;;;15.71;74.48;101523.29;1793807;80;21026;-82
2021/09/14 01:58:36;;;;;;;7.37;3.50;;;;;;;15.68;74.49;101523.67;1793751;80;21010;-82
2021/09/14 02:01:09;;;;;;;7.45;2.90;;;;;;;15.65;74.59;101521.84;1793828;79;21053;-82
2021/09/14 02:08:54;;;;;;;10.40;3.27;;;;;;;15.68;74.78;101527.65;1696248;84;21104;-83
2021/09/14 02:41:42;;;;;;;5.87;2.50;;;;;;;15.69;75.30;101522.38;1793685;80;21143;-83
2021/09/14 03:00:38;;;;;;;4.53;2.45;;;;;;;15.76;75.60;101534.44;1793737;80;21864;-82
2021/09/14 03:03:04;;;;;;;5.83;2.30;;;;;;;15.75;75.57;101538.87;1793367;80;22213;-83
2021/09/14 03:05:33;;;;;;;4.97;2.05;;;;;;;15.76;75.62;101535.77;1794150;80;21030;-82
2021/09/14 03:08:00;;;;;;;5.65;2.62;;;;;;;15.73;75.55;101542.81;1794277;78;21026;-83
2021/09/14 03:10:27;;;;;;;5.83;2.42;;;;;;;15.74;75.59;101542.37;1794258;79;21006;-82
2021/09/14 03:12:54;;;;;;;7.03;2.40;;;;;;;15.73;75.60;101542.81;1794237;79;22524;-82
2021/09/14 03:15:22;;;;;;;6.08;2.58;;;;;;;15.73;75.54;101536.59;1793409;80;21440;-85
2021/09/14 03:17:49;;;;;;;4.67;2.22;;;;;;;15.70;75.55;101534.76;1794110;80;21460;-82
2021/09/14 03:20:16;;;;;;;3.55;2.17;;;;;;;15.70;75.62;101533.88;1793874;80;20977;-83
2021/09/14 03:22:42;;;;;;;7.97;2.45;;;;;;;15.70;75.60;101536.53;1794200;80;21025;-84
2021/09/14 03:25:13;;;;;;;5.67;2.20;;;;;;;15.69;75.62;101535.64;1794091;80;21765;-84
2021/09/14 03:27:38;;;;;;;6.22;2.50;;;;;;;15.68;75.67;101535.61;1793142;80;21053;-84
2021/09/14 03:30:08;;;;;;;6.62;2.40;;;;;;;15.70;75.72;101536.53;1794113;79;21042;-83
2021/09/14 03:32:35;;;;;;;9.43;2.50;;;;;;;15.69;75.77;101530.34;1794083;80;21065;-83
2021/09/14 03:35:02;;;;;;;6.35;2.80;;;;;;;15.69;75.78;101532.99;1793900;80;21001;-82
2021/09/14 03:37:29;;;;;;;10.43;2.27;;;;;;;15.69;75.80;101527.69;1793914;80;21910;-83
2021/09/14 03:39:59;;;;;;;6.78;2.83;;;;;;;15.69;75.82;101526.77;1793868;80;21492;-83
2021/09/14 03:42:24;;;;;;;3.50;2.10;;;;;;;15.69;75.79;101525.03;1793124;78;21049;-83
2021/09/14 03:44:57;;;;;;;7.50;2.20;;;;;;;15.69;75.79;101525.03;1794064;80;21169;-83
2021/09/14 03:47:24;;;;;;;4.95;2.42;;;;;;;15.67;75.79;101520.55;1790009;78;21073;-91
2021/09/14 03:49:51;;;;;;;8.30;2.62;;;;;;;15.66;75.84;101523.64;1763723;79;22948;-85
2021/09/14 03:52:18;;;;;;;8.45;2.40;;;;;;;15.68;75.92;101518.36;1794435;78;21033;-84
2021/09/14 03:54:45;;;;;;;6.15;3.25;;;;;;;15.68;75.89;101516.59;1794367;78;21076;-81
2021/09/14 03:57:11;;;;;;;4.08;2.35;;;;;;;15.67;75.87;101517.48;1794219;78;21069;-82
2021/09/14 03:59:40;;;;;;;5.45;2.40;;;;;;;15.67;75.91;101512.17;1790986;78;21066;-82
2021/09/14 04:02:24;;;;;;;7.15;2.55;;;;;;;15.64;75.90;101514.77;1780563;79;21907;-82
2021/09/14 04:05:01;;;;;;;6.53;2.20;;;;;;;15.65;75.96;101515.64;1778521;80;21066;-82
2021/09/14 04:07:23;;;;;;;7.67;2.30;;;;;;;15.61;75.97;101514.70;1776048;79;21547;-82
2021/09/14 04:09:40;;;;;;;3.87;2.33;;;;;;;15.62;76.02;101520.48;1778843;79;21050;-82
2021/09/14 04:12:09;;;;;;;4.87;2.65;;;;;;;15.62;76.03;101522.25;1754275;79;21129;-82
2021/09/14 04:14:36;;;;;;;6.78;2.62;;;;;;;15.61;76.04;101525.75;1754586;80;21831;-82
2021/09/14 04:17:03;;;;;;;6.25;2.50;;;;;;;15.60;76.08;101530.59;1780935;80;21105;-82
2021/09/14 04:19:30;;;;;;;4.05;2.15;;;;;;;15.60;76.07;101532.84;1781009;80;21051;-83
2021/09/14 04:21:56;;;;;;;4.42;2.10;;;;;;;15.59;76.11;101535.02;1781551;80;21093;-85
2021/09/14 04:24:23;;;;;;;4.20;1.87;;;;;;;15.58;76.16;101531.00;1781010;80;21003;-86
2021/09/14 04:26:50;;;;;;;3.10;1.98;;;;;;;15.59;76.25;101532.80;1781460;80;21752;-90
2021/09/14 04:29:36;;;;;;;4.37;1.70;;;;;;;15.61;76.29;101539.91;1781162;80;21038;-92
2021/09/14 04:32:04;;;;;;;4.30;2.35;;;;;;;15.65;76.27;101543.52;1781995;79;21017;-92
2021/09/14 04:34:31;;;;;;;3.00;1.87;;;;;;;15.67;76.32;101546.67;1755443;80;21058;-93
2021/09/14 04:36:58;;;;;;;5.30;2.40;;;;;;;15.69;76.29;101541.36;1781660;79;21062;-86
2021/09/14 04:39:24;;;;;;;3.22;1.95;;;;;;;15.70;76.22;101544.05;1780804;80;21737;-86
2021/09/14 04:41:51;;;;;;;3.35;1.95;;;;;;;15.71;76.19;101540.95;1780789;80;21070;-84
2021/09/14 04:44:18;;;;;;;6.97;2.00;;;;;;;15.72;76.20;101544.96;1780831;80;21077;-84
2021/09/14 04:46:47;;;;;;;3.08;2.12;;;;;;;15.74;76.25;101547.69;1780827;80;21121;-84
2021/09/14 04:49:14;;;;;;;6.05;2.45;;;;;;;15.77;76.30;101548.19;1780773;79;21627;-84
2021/09/14 04:51:41;;;;;;;5.47;3.10;;;;;;;15.80;76.30;101553.52;1780788;80;22785;-84
2021/09/14 04:54:08;;;;;;;2.37;1.87;;;;;;;15.82;76.30;101555.36;1780701;79;21623;-84
2021/09/14 04:56:34;;;;;;;5.75;2.20;;;;;;;15.83;76.31;101550.48;1754435;80;21035;-84
2021/09/14 04:59:04;;;;;;;4.65;2.08;;;;;;;15.87;76.29;101556.75;1780868;80;21248;-84
2021/09/14 05:01:29;;;;;;;6.30;2.25;;;;;;;15.87;76.21;101557.62;1779911;78;21050;-86
2021/09/14 05:03:56;;;;;;;4.47;2.15;;;;;;;15.88;76.27;101555.45;1781013;79;21773;-86
2021/09/14 05:06:23;;;;;;;2.80;1.77;;;;;;;15.93;76.25;101560.81;1780546;80;21063;-86
2021/09/14 05:08:51;;;;;;;3.40;2.00;;;;;;;15.97;76.21;101562.64;1780899;80;21066;-89
2021/09/14 05:11:18;;;;;;;2.33;1.70;;;;;;;16.01;76.21;101562.27;1780226;80;21110;-88
2021/09/14 05:13:44;;;;;;;4.28;2.20;;;;;;;16.04;76.22;101555.69;1780982;80;21619;-88
2021/09/14 05:16:11;;;;;;;2.42;1.65;;;;;;;16.08;76.19;101558.39;1780952;79;21957;-86
2021/09/14 05:18:38;;;;;;;5.37;2.15;;;;;;;16.12;76.10;101560.66;1780961;79;21108;-86
2021/09/14 05:21:04;;;;;;;4.72;2.50;;;;;;;16.18;76.13;101559.86;1780974;80;21082;-86
2021/09/14 05:23:32;;;;;;;3.08;1.47;;;;;;;16.21;76.06;101558.15;1780947;80;21160;-86
2021/09/14 05:26:04;;;;;;;2.95;2.22;;;;;;;16.25;76.01;101556.43;1780398;79;21066;-86
2021/09/14 05:28:32;;;;;;;3.98;1.95;;;;;;;16.30;76.03;101553.41;1780551;79;21925;-87
2021/09/14 05:31:01;;;;;;;2.67;2.00;;;;;;;16.32;75.90;101545.91;1754785;80;21066;-86
2021/09/14 05:33:28;;;;;;;2.12;1.42;;;;;;;16.36;75.78;101544.64;1781113;80;21206;-86
2021/09/14 05:35:56;;;;;;;3.20;1.75;;;;;;;16.36;75.71;101546.85;1780967;80;21577;-86
2021/09/14 05:38:24;;;;;;;2.85;1.70;;;;;;;16.39;75.69;101551.34;1781038;80;21035;-86
2021/09/14 05:40:53;;;;;;;4.75;1.70;;;;;;;16.41;75.66;101546.48;1781048;80;21764;-86
2021/09/14 05:43:22;;;;;;;2.58;1.42;;;;;;;16.45;75.58;101556.28;1781016;80;21106;-86
2021/09/14 05:45:49;;;;;;;2.40;1.72;;;;;;;16.50;75.65;101550.60;1781154;80;21030;-86
2021/09/14 05:48:15;;;;;;;4.80;1.80;;;;;;;16.59;75.57;101551.58;1781077;79;21465;-86
2021/09/14 05:50:47;;;;;;;5.87;1.67;;;;;;;16.64;75.48;101560.07;1780355;80;21054;-86
2021/09/14 05:53:12;;;;;;;2.85;1.65;;;;;;;16.70;75.49;101556.19;1780509;80;21311;-86
2021/09/14 05:55:39;;;;;;;2.60;1.60;;;;;;;16.80;75.42;101561.17;1781638;80;20979;-86
2021/09/14 05:58:06;;;;;;;1.57;1.22;;;;;;;16.90;75.37;101562.20;1781495;80;21055;-86
2021/09/14 06:00:33;;;;;;;2.58;1.80;;;;;;;17.00;75.22;101564.53;1781407;78;21122;-86
2021/09/14 06:03:00;;;;;;;1.65;1.00;;;;;;;17.10;75.12;101565.11;1781531;79;21026;-86
2021/09/14 06:05:27;;;;;;;2.27;1.42;;;;;;;17.22;75.05;101557.69;1781675;80;21818;-86
2021/09/14 06:07:54;;;;;;;4.37;1.37;;;;;;;17.35;74.83;101566.25;1781218;80;21508;-86
2021/09/14 06:10:20;;;;;;;1.40;1.30;;;;;;;17.44;74.55;101558.80;1781496;79;21054;-86
2021/09/14 06:12:47;;;;;;;3.80;1.27;;;;;;;17.54;74.40;101560.66;1781406;79;21046;-86
2021/09/14 06:15:14;;;;;;;1.52;1.10;;;;;;;17.61;74.25;101554.52;1781365;80;21034;-86
2021/09/14 06:17:41;;;;;;;2.17;1.30;;;;;;;17.72;73.96;101552.37;1781409;80;22470;-87
2021/09/14 06:20:11;;;;;;;3.92;1.35;;;;;;;17.80;73.80;101562.67;1781113;80;21043;-86
2021/09/14 06:22:38;;;;;;;1.70;1.20;;;;;;;17.93;73.84;101561.92;1755820;80;21047;-85
2021/09/14 06:25:08;;;;;;;1.85;1.35;;;;;;;18.16;73.90;101561.19;1754092;80;21047;-86
2021/09/14 06:27:35;;;;;;;4.10;1.27;;;;;;;18.43;73.68;101567.11;1781108;80;21102;-86
2021/09/14 06:30:02;;;;;;;2.52;1.20;;;;;;;18.71;73.40;101566.81;1781166;79;21726;-86
2021/09/14 06:32:28;;;;;;;1.50;1.35;;;;;;;18.92;72.92;101574.07;1781149;80;21686;-86
2021/09/14 06:34:55;;;;;;;1.47;1.35;;;;;;;19.07;72.51;101567.90;1781138;80;21023;-86
2021/09/14 06:37:22;;;;;;;1.87;1.27;;;;;;;19.17;72.14;101568.80;1781358;80;21063;-86
2021/09/14 06:39:49;;;;;;;1.87;1.05;;;;;;;19.25;71.64;101571.48;1781232;80;21030;-86
2021/09/14 06:42:15;;;;;;;2.00;1.12;;;;;;;19.30;71.40;101572.40;1781216;79;21727;-86
2021/09/14 06:44:42;;;;;;;3.55;1.30;;;;;;;19.37;71.29;101568.83;1781456;80;21081;-86
2021/09/14 06:47:11;;;;;;;1.90;1.20;;;;;;;19.43;71.02;101571.53;1781169;79;21075;-85
2021/09/14 06:49:37;;;;;;;2.00;1.30;;;;;;;19.49;70.78;101574.20;1781364;80;21245;-86
2021/09/14 06:52:05;;;;;;;1.67;1.07;;;;;;;19.54;70.58;101571.09;1781208;79;21081;-86
2021/09/14 06:54:32;;;;;;;1.47;1.17;;;;;;;19.63;70.40;101568.86;1781221;80;21747;-86
2021/09/14 06:56:59;;;;;;;1.50;1.10;;;;;;;19.70;70.12;101567.09;1781229;80;21082;-86
2021/09/14 06:59:25;;;;;;;2.40;1.10;;;;;;;19.78;69.96;101571.59;1781241;80;21015;-86
2021/09/14 07:01:52;;;;;;;3.58;1.00;;;;;;;19.90;69.81;101576.03;1780723;79;21097;-85
2021/09/14 07:04:18;;;;;;;0.82;0.82;;;;;;;20.01;69.46;101569.36;1781128;80;21082;-85
2021/09/14 07:06:48;;;;;;;1.67;1.10;;;;;;;20.10;69.13;101569.35;1781062;80;21743;-85
2021/09/14 07:09:15;;;;;;;3.12;1.52;;;;;;;20.14;68.88;101572.45;1780724;80;21046;-87
2021/09/14 07:11:41;;;;;;;2.95;1.10;;;;;;;20.26;68.75;101571.53;1781182;80;21695;-85
2021/09/14 07:14:08;;;;;;;1.40;1.00;;;;;;;20.38;68.54;101568.84;1781105;79;21172;-86
2021/09/14 07:16:35;;;;;;;2.12;1.00;;;;;;;20.53;68.28;101573.69;1781189;80;21062;-86
2021/09/14 07:19:02;;;;;;;1.07;0.98;;;;;;;20.65;68.01;101577.71;1781086;79;21836;-86
2021/09/14 07:21:28;;;;;;;4.60;1.00;;;;;;;20.78;67.69;101571.88;1781094;80;21063;-86
2021/09/14 07:23:55;;;;;;;1.35;1.07;;;;;;;20.92;67.58;101579.37;1781176;80;21529;-86
2021/09/14 07:26:22;;;;;;;4.33;1.40;;;;;;;21.07;67.45;101569.03;1781337;79;21020;-85
2021/09/14 07:28:48;;;;;;;2.77;1.47;;;;;;;21.23;67.10;101575.63;1781372;80;21183;-86
2021/09/14 07:31:15;;;;;;;4.50;1.42;;;;;;;21.38;66.92;101577.33;1781178;79;22346;-86
2021/09/14 07:33:43;;;;;;;1.47;1.20;;;;;;;21.53;66.69;101583.52;1781240;80;21003;-86
2021/09/14 07:36:09;;;;;;;2.95;1.25;;;;;;;21.72;66.41;101583.39;1781250;80;21524;-86
2021/09/14 07:38:39;;;;;;;2.55;1.40;;;;;;;22.21;65.45;101580.26;1781236;80;21385;-86
2021/09/14 07:41:05;;;;;;;1.52;1.30;;;;;;;22.42;64.73;101580.98;1781383;80;21603;-85
2021/09/14 07:43:31;;;;;;;1.55;1.07;;;;;;;22.42;64.73;101580.98;1781435;79;21756;-86
2021/09/14 07:45:58;;;;;;;3.58;3.00;;;;;;;22.87;63.66;101578.65;1781126;80;21047;-86
2021/09/14 07:48:25;;;;;;;2.08;1.17;;;;;;;23.06;63.52;101577.52;1781250;80;21062;-86
2021/09/14 07:50:52;;;;;;;1.85;1.00;;;;;;;23.06;63.52;101577.52;1781081;80;21058;-86
2021/09/14 07:53:18;;;;;;;1.32;1.05;;;;;;;23.19;62.62;101578.70;1781092;80;21045;-86
2021/09/14 07:55:45;;;;;;;1.90;1.50;;;;;;;23.23;62.25;101581.77;1781080;79;22707;-86
2021/09/14 07:58:12;;;;;;;2.30;1.87;;;;;;;23.02;61.17;101586.50;1780866;79;21047;-86
2021/09/14 08:00:38;;;;;;;1.22;1.10;;;;;;;22.83;60.95;101593.02;1781239;79;21003;-86
2021/09/14 08:03:06;;;;;;;4.33;3.40;;;;;;;22.67;60.91;101595.90;1780736;80;21077;-86
2021/09/14 08:05:32;;;;;;;1.77;1.42;;;;;;;22.50;60.80;101603.23;1780939;80;21642;-86
2021/09/14 08:07:59;;;;;;;2.83;1.00;;;;;;;22.33;60.78;101603.41;1780472;79;21719;-86
2021/09/14 08:10:26;;;;;;;2.35;1.35;;;;;;;22.21;60.64;101601.71;1781040;80;21035;-85
2021/09/14 08:12:53;;;;;;;2.37;1.35;;;;;;;22.09;60.82;101600.05;1780999;79;21599;-85
2021/09/14 08:15:19;;;;;;;1.40;1.00;;;;;;;21.98;60.58;101601.02;1781149;80;21522;-86
2021/09/14 08:17:46;;;;;;;2.42;1.77;;;;;;;21.76;60.76;101593.17;1781101;80;21062;-86
2021/09/14 08:20:15;;;;;;;3.77;1.60;;;;;;;21.66;60.76;101601.74;1780946;80;21724;-86
2021/09/14 08:22:42;;;;;;;2.50;1.30;;;;;;;21.60;61.18;101606.24;1780994;80;21520;-86
2021/09/14 08:25:09;;;;;;;1.80;1.70;;;;;;;21.57;61.07;101605.83;1781086;80;21109;-86
2021/09/14 08:27:36;;;;;;;2.25;1.70;;;;;;;21.57;61.07;101605.83;1781196;80;21010;-86
2021/09/14 08:30:04;;;;;;;2.90;0.90;;;;;;;21.62;61.21;101607.11;1781125;80;21011;-86
2021/09/14 08:32:31;;;;;;;1.60;1.27;;;;;;;21.62;61.21;101607.11;1780882;79;22643;-85
2021/09/14 08:34:57;;;;;;;3.52;1.55;;;;;;;21.81;61.33;101609.20;1780901;80;21062;-86
2021/09/14 08:37:24;;;;;;;1.72;1.35;;;;;;;21.81;61.33;101609.20;1780876;79;21054;-86
2021/09/14 08:39:51;;;;;;;7.78;1.72;;;;;;;21.96;60.60;101613.55;1781054;80;21102;-85
2021/09/14 08:42:20;;;;;;;3.25;2.17;;;;;;;21.96;60.60;101613.55;1781001;80;21071;-86
2021/09/14 08:44:47;;;;;;;1.45;0.98;;;;;;;22.05;60.58;101610.33;1780999;80;21705;-86
2021/09/14 08:47:14;;;;;;;1.42;1.17;;;;;;;22.22;60.01;101614.20;1780657;80;21062;-86
2021/09/14 08:49:41;;;;;;;1.65;1.55;;;;;;;22.22;60.01;101614.20;1780303;80;21034;-86
2021/09/14 08:52:08;;;;;;;1.67;1.30;;;;;;;22.38;59.80;101616.79;1781179;79;21116;-86
2021/09/14 08:54:34;;;;;;;1.27;1.05;;;;;;;22.38;59.80;101616.79;1781239;80;21520;-86
2021/09/14 08:57:01;;;;;;;2.12;1.10;;;;;;;22.34;59.23;101590.91;1781073;80;21736;-86
2021/09/14 08:59:32;;;;;;;1.55;1.45;;;;;;;22.45;58.76;101618.52;1781065;80;20999;-86
2021/09/14 09:02:04;;;;;;;3.70;2.98;;;;;;;22.45;58.43;101619.39;1780587;79;21643;-86
2021/09/14 09:04:32;;;;;;;2.00;1.75;;;;;;;22.45;58.43;101619.39;1780838;80;21561;-86
2021/09/14 09:06:59;;;;;;;1.82;1.15;;;;;;;22.37;58.33;101616.34;1781226;80;21018;-86
2021/09/14 09:09:26;;;;;;;1.25;0.80;;;;;;;22.31;58.37;101611.92;1781526;80;21763;-86
2021/09/14 09:12:03;;;;;;;1.10;0.95;;;;;;;22.31;58.37;101611.92;1781222;80;21281;-86
2021/09/14 09:14:44;;;;;;;3.45;2.95;;;;;;;22.40;58.27;101617.66;1781268;80;21039;-86
2021/09/14 09:17:13;;;;;;;2.15;1.40;;;;;;;22.47;58.22;101620.72;1781089;79;21589;-86
2021/09/14 09:19:42;;;;;;;1.17;1.10;;;;;;;22.50;57.76;101622.01;1781374;80;21031;-87
2021/09/14 09:22:11;;;;;;;1.42;1.07;;;;;;;22.46;57.77;101625.64;1781146;80;21744;-87
2021/09/14 09:24:49;;;;;;;1.62;1.42;;;;;;;22.56;57.83;101623.73;1781087;79;20996;-85
2021/09/14 09:27:24;;;;;;;1.22;0.90;;;;;;;22.73;57.49;101620.87;1781205;80;21117;-86
2021/09/14 09:30:07;;;;;;;0.80;0.80;;;;;;;22.86;57.31;101619.38;1781128;80;21210;-86
2021/09/14 09:32:49;;;;;;;1.17;1.07;;;;;;;23.02;56.85;101623.20;1780836;80;21086;-85
2021/09/14 09:35:27;;;;;;;2.98;1.00;;;;;;;23.15;56.47;101627.55;1781146;80;21738;-85
2021/09/14 09:37:54;;;;;;;1.00;0.90;;;;;;;23.17;55.71;101623.50;1781060;80;21054;-85
2021/09/14 09:40:31;;;;;;;1.10;0.62;;;;;;;23.16;55.67;101620.36;1781164;80;21106;-85
2021/09/14 09:43:01;;;;;;;1.92;0.75;;;;;;;23.25;55.89;101614.87;1781254;80;21137;-86
2021/09/14 09:45:28;;;;;;;1.17;0.90;;;;;;;23.48;55.78;101618.12;1781325;80;21078;-86
2021/09/14 09:47:55;;;;;;;1.57;1.42;;;;;;;23.61;55.72;101617.92;1781160;80;21531;-85
2021/09/14 09:50:22;;;;;;;2.83;0.80;;;;;;;23.68;55.30;101616.45;1754416;80;21044;-86
2021/09/14 09:52:49;;;;;;;6.70;1.98;;;;;;;23.79;55.28;101615.45;1781113;79;21643;-85
2021/09/14 09:55:19;;;;;;;0.85;0.80;;;;;;;23.83;54.79;101620.73;1753620;80;21046;-85
2021/09/14 09:57:47;;;;;;;1.98;1.10;;;;;;;23.85;54.87;101619.38;1781150;80;21643;-85
2021/09/14 10:00:16;;;;;;;1.27;0.80;;;;;;;23.95;54.42;101617.41;1780991;79;22447;-85
2021/09/14 10:02:51;;;;;;;1.62;1.00;;;;;;;23.83;54.07;101621.20;1783713;79;21018;-85
2021/09/14 10:05:20;;;;;;;4.87;1.30;;;;;;;23.70;53.93;101620.94;1785453;79;21035;-85
2021/09/14 10:07:46;;;;;;;1.45;0.85;;;;;;;23.77;54.30;101626.66;1785707;78;21669;-85
2021/09/14 10:10:13;;;;;;;0.72;0.57;;;;;;;23.81;53.88;101627.94;1785709;80;21061;-86
2021/09/14 10:12:40;;;;;;;0.95;0.78;;;;;;;23.70;53.67;101628.53;1785777;80;21979;-85
2021/09/14 10:15:12;;;;;;;1.45;1.02;;;;;;;23.70;53.70;101624.50;1785748;79;21046;-85
2021/09/14 10:17:53;;;;;;;1.95;1.27;;;;;;;23.70;53.63;101620.94;1785684;79;21046;-85
2021/09/14 10:20:22;;;;;;;2.42;0.90;;;;;;;23.67;53.48;101623.23;1785715;79;21053;-86
2021/09/14 10:23:04;;;;;;;1.10;0.70;;;;;;;23.63;53.71;101621.04;1785784;79;21022;-86
2021/09/14 10:25:31;;;;;;;1.60;0.60;;;;;;;23.68;53.67;101619.61;1785993;80;21754;-85
2021/09/14 10:28:13;;;;;;;0.98;0.55;;;;;;;23.71;53.50;101616.89;1785446;80;21051;-86
2021/09/14 10:30:41;;;;;;;1.70;0.80;;;;;;;23.75;53.56;101624.45;1785399;79;21039;-86
2021/09/14 10:33:24;;;;;;;1.00;0.55;;;;;;;23.78;53.36;101620.34;1759878;80;21125;-86
2021/09/14 10:35:51;;;;;;;2.15;1.20;;;;;;;23.76;53.20;101628.46;1785833;79;22163;-86
2021/09/14 10:38:18;;;;;;;1.57;0.62;;;;;;;23.66;53.05;101623.66;1785719;79;21740;-86
2021/09/14 10:40:55;;;;;;;2.72;2.10;;;;;;;23.56;52.93;101625.19;1785727;79;21070;-86
2021/09/14 10:43:29;;;;;;;3.65;2.05;;;;;;;23.41;52.67;101623.62;1785743;80;21578;-86
2021/09/14 10:45:58;;;;;;;2.90;1.50;;;;;;;23.29;52.84;101627.34;1785378;80;21524;-87
2021/09/14 10:48:30;;;;;;;5.00;1.98;;;;;;;23.17;52.84;101629.75;1785811;80;21065;-86
2021/09/14 10:51:16;;;;;;;6.90;1.70;;;;;;;22.91;53.04;101630.92;1785691;79;21760;-86
2021/09/14 10:53:57;;;;;;;4.92;1.30;;;;;;;22.73;53.42;101631.17;1785703;79;21113;-86
2021/09/14 10:56:26;;;;;;;2.62;0.90;;;;;;;22.65;53.72;101639.74;1785968;79;21030;-86
2021/09/14 10:58:52;;;;;;;3.70;1.05;;;;;;;22.56;54.10;101634.05;1785769;80;21081;-86
2021/09/14 11:01:23;;;;;;;7.37;2.05;;;;;;;22.58;54.38;101636.25;1785871;80;21003;-86
2021/09/14 11:04:08;;;;;;;4.22;1.60;;;;;;;22.60;54.40;101638.89;1786040;80;21924;-86
2021/09/14 11:06:34;;;;;;;2.05;1.45;;;;;;;22.56;54.40;101638.06;1786074;80;21215;-85
2021/09/14 11:09:04;;;;;;;3.45;1.22;;;;;;;22.54;54.49;101645.67;1786414;80;21042;-86
2021/09/14 11:11:30;;;;;;;3.17;1.50;;;;;;;22.50;54.57;101645.73;1786137;79;20984;-86
2021/09/14 11:13:57;;;;;;;7.78;1.47;;;;;;;22.46;54.55;101645.30;1786170;80;21559;-86
2021/09/14 11:16:24;;;;;;;3.20;1.40;;;;;;;22.43;54.64;101638.64;1786089;80;21738;-86
2021/09/14 11:18:51;;;;;;;3.90;1.52;;;;;;;22.37;54.67;101644.05;1785777;80;21027;-86
2021/09/14 11:21:19;;;;;;;4.22;1.52;;;;;;;22.32;54.72;101634.72;1786189;80;21587;-86
2021/09/14 11:23:49;;;;;;;2.87;1.32;;;;;;;22.30;54.94;101630.28;1786143;79;21297;-86
2021/09/14 11:26:18;;;;;;;2.00;1.00;;;;;;;22.26;54.88;101633.44;1786233;80;21038;-86
2021/09/14 11:28:59;;;;;;;4.35;1.12;;;;;;;22.22;54.82;101636.11;1786291;80;21760;-86
2021/09/14 11:31:31;;;;;;;8.03;1.80;;;;;;;22.18;54.54;101636.59;1786258;80;21035;-86
2021/09/14 11:33:57;;;;;;;2.42;1.20;;;;;;;22.13;54.96;101638.45;1786100;80;21003;-86
2021/09/14 11:36:25;;;;;;;6.95;1.05;;;;;;;22.01;55.28;101609.05;1785912;79;21074;-86
2021/09/14 11:39:05;;;;;;;2.72;1.20;;;;;;;22.16;55.13;101631.70;1786249;79;21272;-87
2021/09/14 11:41:37;;;;;;;2.20;1.30;;;;;;;22.14;55.14;101630.36;1786206;80;21758;-86
2021/09/14 11:44:05;;;;;;;3.75;1.37;;;;;;;22.14;55.14;101632.16;1785927;80;21059;-86
2021/09/14 11:46:31;;;;;;;4.50;1.10;;;;;;;22.14;55.14;101632.16;1785936;80;21055;-86
2021/09/14 11:49:03;;;;;;;7.08;1.30;;;;;;;22.17;55.19;101632.15;1786172;80;22308;-85
2021/09/14 11:51:41;;;;;;;4.20;1.50;;;;;;;22.18;55.22;101628.55;1785725;80;21085;-86
2021/09/14 11:54:12;;;;;;;3.77;1.30;;;;;;;22.17;55.27;101628.12;1785542;80;22646;-86
2021/09/14 11:56:39;;;;;;;4.05;1.42;;;;;;;22.20;55.37;101629.42;1785902;80;21047;-86
2021/09/14 11:59:16;;;;;;;4.00;1.62;;;;;;;22.24;55.45;101628.52;1785785;80;21019;-86
2021/09/14 12:01:44;;;;;;;3.90;2.87;;;;;;;22.28;55.12;101629.38;1785957;79;21246;-86
2021/09/14 12:04:17;;;;;;;2.55;1.50;;;;;;;22.29;54.93;101627.15;1794112;78;21050;-86
2021/09/14 12:06:55;;;;;;;4.83;1.40;;;;;;;22.20;54.87;101611.11;1794765;78;22428;-85
2021/09/14 12:09:22;;;;;;;2.47;1.05;;;;;;;22.39;55.20;101630.19;1794739;79;21022;-85
2021/09/14 12:12:09;;;;;;;3.65;1.20;;;;;;;22.57;55.15;101633.58;1794842;79;21512;-85
2021/09/14 12:14:39;;;;;;;3.37;1.42;;;;;;;22.71;54.94;101635.21;1794678;79;21025;-85
2021/09/14 12:17:05;;;;;;;4.33;1.45;;;;;;;22.79;54.72;101634.23;1794225;79;20995;-86
2021/09/14 12:19:36;;;;;;;3.52;1.40;;;;;;;22.88;54.83;101629.64;1794290;79;22600;-86
2021/09/14 12:22:02;;;;;;;3.22;1.50;;;;;;;23.02;54.75;101629.92;1794056;79;21026;-86